createdAt,value
2018-05-21T00:00:03.361Z,12.90
2018-05-21T00:02:31.639Z,13.30
2018-05-21T00:04:59.914Z,13.30
2018-05-21T00:07:28.246Z,13.10
2018-05-21T00:09:56.527Z,13.20
2018-05-21T00:12:25.586Z,13.80
2018-05-21T00:14:53.918Z,13.80
2018-05-21T00:17:22.204Z,13.60
2018-05-21T00:19:50.483Z,13.60
2018-05-21T00:22:18.802Z,13.60
2018-05-21T00:24:47.099Z,13.80
2018-05-21T00:27:15.682Z,13.70
2018-05-21T00:29:44.003Z,13.70
2018-05-21T00:32:12.291Z,13.50
2018-05-21T00:34:40.590Z,14.00
2018-05-21T00:37:08.874Z,14.00
2018-05-21T00:39:37.311Z,13.90
2018-05-21T00:42:05.605Z,14.00
2018-05-21T00:44:33.886Z,14.20
2018-05-21T00:47:02.186Z,14.30
2018-05-21T00:49:30.479Z,14.20
2018-05-21T00:51:58.886Z,14.00
2018-05-21T00:54:27.951Z,14.30
2018-05-21T00:56:56.230Z,14.30
2018-05-21T00:59:24.538Z,14.30
2018-05-21T01:01:53.579Z,14.30
2018-05-21T01:04:21.962Z,14.30
2018-05-21T01:06:50.242Z,14.10
2018-05-21T01:09:18.524Z,14.10
2018-05-21T01:11:46.847Z,14.00
2018-05-21T01:14:15.135Z,13.90
2018-05-21T01:16:43.459Z,13.80
2018-05-21T01:19:11.739Z,13.90
2018-05-21T01:21:40.018Z,13.70
2018-05-21T01:24:08.343Z,13.80
2018-05-21T01:26:36.625Z,13.80
2018-05-21T01:29:04.663Z,13.70
2018-05-21T01:31:33.759Z,14.20
2018-05-21T01:34:02.813Z,14.20
2018-05-21T01:36:31.088Z,14.20
2018-05-21T01:38:59.407Z,14.10
2018-05-21T01:41:27.686Z,14.10
2018-05-21T01:43:55.971Z,14.10
2018-05-21T01:46:24.286Z,14.10
2018-05-21T01:48:52.571Z,13.90
2018-05-21T01:51:20.971Z,13.90
2018-05-21T01:53:49.312Z,13.70
2018-05-21T01:56:17.587Z,13.80
2018-05-21T01:58:45.863Z,13.80
2018-05-21T02:01:14.374Z,13.90
2018-05-21T02:03:42.896Z,13.90
2018-05-21T02:06:11.389Z,13.80
2018-05-21T02:08:39.921Z,13.50
2018-05-21T02:11:08.399Z,13.60
2018-05-21T02:13:36.506Z,13.40
2018-05-21T02:16:04.798Z,13.40
2018-05-21T02:18:33.102Z,13.30
2018-05-21T02:21:01.414Z,13.50
2018-05-21T02:23:29.726Z,13.40
2018-05-21T02:25:58.774Z,13.10
2018-05-21T02:28:27.078Z,13.10
2018-05-21T02:30:55.355Z,13.00
2018-05-21T02:33:23.663Z,13.00
2018-05-21T02:35:51.939Z,12.90
2018-05-21T02:38:20.218Z,12.80
2018-05-21T02:40:48.537Z,12.90
2018-05-21T02:43:16.822Z,13.10
2018-05-21T02:45:45.114Z,13.10
2018-05-21T02:48:13.434Z,12.80
2018-05-21T02:50:41.715Z,12.70
2018-05-21T02:53:09.991Z,12.60
2018-05-21T02:55:38.286Z,12.50
2018-05-21T02:58:06.622Z,12.40
2018-05-21T03:00:35.670Z,12.20
2018-05-21T03:03:03.942Z,12.20
2018-05-21T03:05:32.268Z,12.00
2018-05-21T03:08:01.314Z,12.00
2018-05-21T03:10:29.591Z,12.00
2018-05-21T03:12:57.895Z,12.00
2018-05-21T03:15:26.186Z,11.90
2018-05-21T03:17:55.266Z,12.10
2018-05-21T03:20:23.549Z,12.10
2018-05-21T03:22:51.862Z,12.00
2018-05-21T03:25:20.142Z,11.80
2018-05-21T03:27:48.453Z,11.70
2018-05-21T03:30:16.727Z,11.60
2018-05-21T03:32:45.031Z,11.70
2018-05-21T03:35:13.350Z,11.60
2018-05-21T03:37:41.635Z,11.50
2018-05-21T03:40:09.914Z,12.00
2018-05-21T03:42:38.216Z,12.20
2018-05-21T03:45:06.499Z,12.10
2018-05-21T03:47:34.805Z,12.10
2018-05-21T03:50:03.086Z,12.40
2018-05-21T03:52:32.306Z,12.60
2018-05-21T03:55:00.654Z,12.60
2018-05-21T03:57:28.930Z,12.70
2018-05-21T04:00:14.890Z,12.70
2018-05-21T04:03:00.588Z,12.90
2018-05-21T04:05:28.911Z,12.90
2018-05-21T04:07:57.199Z,13.00
2018-05-21T04:10:26.504Z,13.10
2018-05-21T04:12:54.823Z,13.20
2018-05-21T04:15:23.106Z,13.20
2018-05-21T04:17:51.391Z,13.50
2018-05-21T04:20:19.714Z,13.80
2018-05-21T04:22:47.998Z,14.20
2018-05-21T04:25:16.274Z,14.40
2018-05-21T04:27:44.570Z,14.70
2018-05-21T04:30:12.855Z,15.40
2018-05-21T04:32:41.167Z,16.30
2018-05-21T04:35:09.446Z,16.90
2018-05-21T04:37:37.805Z,17.60
2018-05-21T04:40:06.085Z,17.90
2018-05-21T04:42:34.665Z,17.60
2018-05-21T04:45:03.079Z,18.10
2018-05-21T04:47:31.358Z,18.30
2018-05-21T04:49:59.642Z,18.50
2018-05-21T04:52:27.943Z,18.50
2018-05-21T04:54:56.226Z,18.60
2018-05-21T04:57:24.537Z,18.80
2018-05-21T04:59:53.027Z,18.90
2018-05-21T05:02:21.306Z,18.90
2018-05-21T05:04:49.590Z,19.70
2018-05-21T05:07:17.930Z,19.80
2018-05-21T05:09:46.218Z,19.80
2018-05-21T05:12:14.514Z,19.80
2018-05-21T05:14:43.583Z,19.60
2018-05-21T05:17:11.866Z,19.60
2018-05-21T05:19:40.159Z,19.90
2018-05-21T05:22:09.254Z,21.30
2018-05-21T05:24:37.543Z,21.30
2018-05-21T05:27:06.599Z,20.60
2018-05-21T05:29:34.924Z,20.60
2018-05-21T05:32:03.205Z,20.80
2018-05-21T05:34:31.487Z,21.40
2018-05-21T05:36:59.784Z,21.30
2018-05-21T05:39:28.070Z,21.70
2018-05-21T05:41:56.409Z,22.00
2018-05-21T05:44:24.679Z,22.00
2018-05-21T05:46:52.994Z,21.80
2018-05-21T05:49:21.278Z,22.20
2018-05-21T05:51:49.587Z,22.50
2018-05-21T05:54:17.875Z,21.80
2018-05-21T05:56:46.199Z,21.70
2018-05-21T05:59:14.482Z,21.10
2018-05-21T06:01:42.770Z,21.30
2018-05-21T06:04:11.095Z,21.10
2018-05-21T06:06:39.377Z,20.90
2018-05-21T06:09:07.654Z,20.40
2018-05-21T06:11:35.950Z,20.60
2018-05-21T06:14:04.232Z,22.30
2018-05-21T06:16:32.551Z,21.80
2018-05-21T06:19:00.598Z,21.90
2018-05-21T06:21:28.883Z,22.70
2018-05-21T06:23:57.181Z,22.40
2018-05-21T06:26:25.460Z,21.90
2018-05-21T06:28:53.778Z,21.50
2018-05-21T06:31:22.059Z,21.60
2018-05-21T06:33:50.395Z,21.10
2018-05-21T06:36:18.682Z,20.80
2018-05-21T06:38:46.971Z,20.70
2018-05-21T06:41:15.246Z,20.60
2018-05-21T06:43:43.542Z,20.90
2018-05-21T06:46:11.818Z,21.40
2018-05-21T06:48:40.142Z,21.80
2018-05-21T06:51:08.431Z,22.20
2018-05-21T06:53:36.710Z,22.30
2018-05-21T06:56:05.015Z,22.80
2018-05-21T06:58:34.064Z,22.70
2018-05-21T07:01:02.386Z,22.70
2018-05-21T07:03:31.446Z,23.20
2018-05-21T07:05:59.725Z,23.20
2018-05-21T07:08:28.061Z,23.70
2018-05-21T07:10:56.334Z,24.70
2018-05-21T07:13:24.614Z,23.40
2018-05-21T07:15:52.948Z,23.70
2018-05-21T07:18:21.298Z,23.70
2018-05-21T07:20:49.526Z,24.40
2018-05-21T07:23:17.838Z,24.90
2018-05-21T07:25:46.119Z,26.30
2018-05-21T07:28:14.400Z,26.80
2018-05-21T07:30:42.714Z,28.10
2018-05-21T07:33:10.991Z,27.80
2018-05-21T07:35:40.095Z,26.40
2018-05-21T07:38:09.215Z,27.70
2018-05-21T07:40:37.582Z,27.60
2018-05-21T07:43:05.907Z,27.90
2018-05-21T07:45:34.191Z,27.60
2018-05-21T07:48:02.493Z,27.20
2018-05-21T07:50:30.793Z,27.10
2018-05-21T07:52:59.066Z,27.90
2018-05-21T07:55:27.387Z,27.10
2018-05-21T07:57:55.666Z,27.00
2018-05-21T08:00:23.957Z,25.90
2018-05-21T08:02:52.301Z,26.30
2018-05-21T08:05:20.638Z,26.50
2018-05-21T08:07:48.891Z,28.20
2018-05-21T08:10:17.222Z,27.90
2018-05-21T08:12:45.519Z,28.30
2018-05-21T08:15:13.818Z,27.80
2018-05-21T08:17:42.129Z,28.00
2018-05-21T08:20:10.413Z,27.70
2018-05-21T08:22:38.490Z,27.50
2018-05-21T08:25:06.827Z,28.40
2018-05-21T08:27:35.107Z,28.30
2018-05-21T08:30:03.394Z,26.50
2018-05-21T08:32:31.708Z,27.70
2018-05-21T08:34:59.987Z,27.80
2018-05-21T08:37:28.309Z,27.90
2018-05-21T08:39:56.638Z,27.90
2018-05-21T08:42:24.914Z,27.50
2018-05-21T08:44:53.194Z,27.00
2018-05-21T08:47:21.529Z,27.80
2018-05-21T08:49:49.811Z,28.10
2018-05-21T08:52:19.058Z,27.40
2018-05-21T08:54:47.514Z,26.50
2018-05-21T08:57:15.794Z,26.30
2018-05-21T08:59:44.066Z,28.80
2018-05-21T09:02:12.395Z,30.00
2018-05-21T09:04:40.734Z,29.70
2018-05-21T09:07:09.014Z,29.90
2018-05-21T09:09:37.334Z,30.70
2018-05-21T09:12:05.627Z,31.30
2018-05-21T09:14:33.912Z,31.70
2018-05-21T09:17:02.237Z,32.60
2018-05-21T09:19:30.529Z,30.10
2018-05-21T09:21:58.860Z,28.40
2018-05-21T09:24:27.923Z,28.20
2018-05-21T09:26:56.210Z,28.20
2018-05-21T09:29:24.530Z,28.50
2018-05-21T09:31:52.813Z,28.30
2018-05-21T09:34:21.093Z,29.90
2018-05-21T09:36:49.417Z,29.70
2018-05-21T09:39:17.694Z,27.30
2018-05-21T09:41:45.972Z,27.10
2018-05-21T09:44:14.311Z,27.90
2018-05-21T09:46:42.591Z,29.80
2018-05-21T09:49:10.875Z,31.80
2018-05-21T09:51:39.190Z,31.20
2018-05-21T09:54:07.483Z,29.00
2018-05-21T09:56:36.533Z,30.30
2018-05-21T09:59:05.000Z,30.30
2018-05-21T10:01:33.291Z,30.30
2018-05-21T10:04:01.571Z,30.70
2018-05-21T10:06:29.875Z,31.20
2018-05-21T10:08:58.158Z,31.10
2018-05-21T10:11:27.206Z,32.20
2018-05-21T10:13:55.507Z,32.10
2018-05-21T10:16:23.807Z,32.80
2018-05-21T10:18:52.864Z,34.00
2018-05-21T10:21:21.194Z,34.00
2018-05-21T10:23:50.243Z,34.20
2018-05-21T10:26:18.530Z,34.10
2018-05-21T10:28:46.857Z,33.40
2018-05-21T10:31:15.138Z,32.70
2018-05-21T10:33:43.418Z,31.40
2018-05-21T10:36:11.762Z,30.70
2018-05-21T10:38:40.045Z,31.40
2018-05-21T10:41:08.340Z,32.80
2018-05-21T10:43:36.682Z,32.50
2018-05-21T10:46:04.966Z,32.00
2018-05-21T10:48:33.253Z,31.80
2018-05-21T10:51:02.346Z,34.80
2018-05-21T10:53:31.403Z,31.60
2018-05-21T10:55:59.692Z,31.60
2018-05-21T10:58:28.031Z,31.60
2018-05-21T11:00:56.312Z,31.60
2018-05-21T11:03:24.590Z,32.00
2018-05-21T11:05:52.898Z,32.80
2018-05-21T11:08:21.170Z,32.60
2018-05-21T11:10:49.484Z,30.60
2018-05-21T11:13:17.814Z,32.50
2018-05-21T11:15:46.096Z,33.80
2018-05-21T11:18:14.372Z,34.10
2018-05-21T11:20:42.695Z,34.50
2018-05-21T11:23:11.750Z,32.10
2018-05-21T11:25:40.038Z,32.00
2018-05-21T11:28:08.335Z,31.60
2018-05-21T11:30:36.616Z,30.30
2018-05-21T11:33:05.690Z,29.60
2018-05-21T11:35:33.979Z,29.60
2018-05-21T11:38:02.319Z,29.80
2018-05-21T11:40:30.606Z,31.90
2018-05-21T11:42:58.886Z,32.80
2018-05-21T11:45:27.199Z,33.00
2018-05-21T11:47:55.474Z,34.00
2018-05-21T11:50:23.777Z,34.30
2018-05-21T11:52:52.088Z,35.20
2018-05-21T11:55:20.365Z,36.50
2018-05-21T11:57:48.648Z,36.20
2018-05-21T12:00:16.990Z,35.60
2018-05-21T12:02:45.367Z,34.80
2018-05-21T12:05:13.575Z,35.10
2018-05-21T12:07:41.896Z,34.20
2018-05-21T12:10:10.174Z,33.80
2018-05-21T12:12:38.503Z,33.40
2018-05-21T12:15:06.791Z,33.90
2018-05-21T12:17:35.070Z,34.00
2018-05-21T12:20:03.400Z,33.60
2018-05-21T12:22:31.691Z,34.30
2018-05-21T12:24:59.970Z,34.90
2018-05-21T12:27:28.301Z,33.00
2018-05-21T12:29:56.591Z,34.20
2018-05-21T12:32:24.871Z,33.40
2018-05-21T12:34:53.171Z,32.80
2018-05-21T12:37:21.454Z,34.70
2018-05-21T12:39:49.755Z,34.30
2018-05-21T12:42:18.043Z,33.40
2018-05-21T12:44:46.364Z,33.90
2018-05-21T12:47:14.649Z,32.80
2018-05-21T12:49:42.926Z,33.80
2018-05-21T12:52:11.264Z,34.40
2018-05-21T12:54:39.600Z,32.60
2018-05-21T12:57:07.839Z,31.30
2018-05-21T12:59:36.139Z,31.40
2018-05-21T13:02:04.420Z,31.80
2018-05-21T13:04:32.718Z,33.50
2018-05-21T13:07:00.999Z,33.90
2018-05-21T13:09:29.299Z,34.20
2018-05-21T13:11:57.575Z,34.60
2018-05-21T13:14:25.887Z,34.00
2018-05-21T13:16:54.171Z,34.60
2018-05-21T13:19:22.458Z,34.40
2018-05-21T13:21:50.764Z,32.20
2018-05-21T13:24:19.041Z,31.80
2018-05-21T13:26:47.318Z,32.40
2018-05-21T13:29:15.635Z,34.10
2018-05-21T13:31:43.678Z,32.30
2018-05-21T13:34:11.961Z,30.50
2018-05-21T13:36:40.301Z,31.30
2018-05-21T13:39:08.583Z,33.70
2018-05-21T13:41:36.862Z,33.50
2018-05-21T13:44:05.194Z,32.90
2018-05-21T13:46:34.250Z,30.70
2018-05-21T13:49:02.535Z,30.60
2018-05-21T13:51:30.878Z,30.40
2018-05-21T13:53:59.155Z,31.20
2018-05-21T13:56:27.431Z,30.80
2018-05-21T13:58:55.849Z,30.40
2018-05-21T14:01:24.059Z,29.90
2018-05-21T14:03:52.123Z,30.30
2018-05-21T14:06:20.431Z,29.60
2018-05-21T14:08:48.721Z,29.20
2018-05-21T14:11:17.077Z,28.40
2018-05-21T14:13:45.306Z,27.80
2018-05-21T14:16:13.621Z,27.90
2018-05-21T14:18:41.928Z,28.00
2018-05-21T14:21:10.219Z,26.90
2018-05-21T14:23:38.498Z,26.90
2018-05-21T14:26:06.822Z,27.90
2018-05-21T14:28:35.107Z,28.80
2018-05-21T14:31:03.390Z,29.10
2018-05-21T14:33:31.855Z,29.30
2018-05-21T14:36:00.138Z,28.40
2018-05-21T14:38:28.427Z,27.50
2018-05-21T14:40:56.727Z,27.00
2018-05-21T14:43:25.032Z,27.40
2018-05-21T14:45:53.331Z,28.40
2018-05-21T14:48:21.689Z,29.70
2018-05-21T14:50:50.688Z,29.60
2018-05-21T14:53:18.965Z,29.60
2018-05-21T14:55:47.249Z,28.60
2018-05-21T14:58:15.567Z,28.30
2018-05-21T15:00:43.859Z,27.90
2018-05-21T15:03:12.139Z,27.70
2018-05-21T15:05:40.460Z,27.60
2018-05-21T15:08:08.743Z,27.70
2018-05-21T15:10:37.018Z,26.90
2018-05-21T15:13:05.339Z,26.60
2018-05-21T15:15:33.628Z,26.80
2018-05-21T15:18:01.927Z,27.10
2018-05-21T15:20:30.262Z,27.40
2018-05-21T15:22:58.542Z,27.20
2018-05-21T15:25:26.827Z,27.50
2018-05-21T15:27:55.138Z,27.80
2018-05-21T15:30:23.418Z,28.00
2018-05-21T15:32:51.738Z,27.90
2018-05-21T15:35:20.018Z,27.70
2018-05-21T15:37:48.308Z,27.70
2018-05-21T15:40:16.611Z,25.70
2018-05-21T15:42:44.889Z,25.30
2018-05-21T15:45:13.175Z,25.30
2018-05-21T15:47:41.503Z,25.30
2018-05-21T15:50:09.788Z,25.30
2018-05-21T15:52:38.079Z,25.40
2018-05-21T15:55:06.401Z,25.20
2018-05-21T15:57:34.752Z,25.10
2018-05-21T16:00:02.970Z,25.10
2018-05-21T16:02:31.284Z,25.30
2018-05-21T16:04:59.559Z,25.50
2018-05-21T16:07:27.830Z,25.20
2018-05-21T16:09:56.146Z,24.90
2018-05-21T16:12:24.420Z,25.00
2018-05-21T16:14:52.695Z,25.20
2018-05-21T16:17:21.026Z,25.30
2018-05-21T16:19:50.080Z,25.40
2018-05-21T16:22:18.362Z,25.40
2018-05-21T16:24:46.679Z,25.40
2018-05-21T16:27:14.959Z,25.80
2018-05-21T16:29:43.249Z,26.00
2018-05-21T16:32:11.574Z,25.80
2018-05-21T16:34:39.859Z,25.50
2018-05-21T16:37:08.150Z,25.70
2018-05-21T16:39:36.465Z,25.70
2018-05-21T16:42:04.737Z,25.10
2018-05-21T16:44:33.019Z,24.90
2018-05-21T16:47:01.343Z,25.10
2018-05-21T16:49:30.234Z,24.90
2018-05-21T16:51:58.513Z,25.30
2018-05-21T16:54:26.842Z,24.70
2018-05-21T16:56:55.119Z,24.70
2018-05-21T16:59:23.407Z,25.10
2018-05-21T17:01:51.730Z,24.80
2018-05-21T17:04:20.038Z,24.70
2018-05-21T17:06:48.320Z,25.30
2018-05-21T17:09:16.646Z,25.20
2018-05-21T17:11:44.935Z,24.50
2018-05-21T17:14:13.214Z,24.30
2018-05-21T17:16:42.278Z,23.70
2018-05-21T17:19:10.569Z,23.60
2018-05-21T17:21:38.906Z,23.70
2018-05-21T17:24:07.183Z,23.60
2018-05-21T17:26:35.462Z,23.80
2018-05-21T17:29:03.771Z,24.00
2018-05-21T17:31:32.060Z,24.10
2018-05-21T17:34:00.334Z,24.30
2018-05-21T17:36:28.650Z,24.00
2018-05-21T17:38:56.936Z,24.00
2018-05-21T17:41:25.222Z,24.30
2018-05-21T17:43:53.538Z,24.50
2018-05-21T17:46:21.826Z,24.30
2018-05-21T17:48:50.159Z,23.80
2018-05-21T17:51:18.439Z,23.60
2018-05-21T17:53:46.718Z,23.90
2018-05-21T17:56:15.053Z,24.30
2018-05-21T17:58:43.349Z,24.50
2018-05-21T18:01:11.640Z,24.80
2018-05-21T18:03:39.955Z,24.70
2018-05-21T18:06:08.243Z,25.00
2018-05-21T18:08:36.519Z,25.20
2018-05-21T18:11:04.826Z,25.00
2018-05-21T18:13:33.868Z,26.10
2018-05-21T18:16:02.144Z,26.10
2018-05-21T18:18:30.479Z,26.00
2018-05-21T18:20:58.762Z,26.50
2018-05-21T18:23:27.037Z,25.40
2018-05-21T18:25:55.614Z,24.30
2018-05-21T18:28:23.898Z,23.30
2018-05-21T18:30:52.184Z,22.80
2018-05-21T18:33:20.659Z,22.30
2018-05-21T18:35:49.017Z,21.40
2018-05-21T18:38:17.254Z,21.20
2018-05-21T18:40:45.558Z,20.90
2018-05-21T18:43:14.620Z,20.40
2018-05-21T18:45:42.902Z,20.40
2018-05-21T18:48:11.225Z,20.30
2018-05-21T18:50:40.272Z,20.10
2018-05-21T18:53:08.568Z,20.00
2018-05-21T18:55:36.903Z,20.00
2018-05-21T18:58:05.182Z,19.60
2018-05-21T19:00:33.467Z,19.50
2018-05-21T19:03:01.790Z,19.50
2018-05-21T19:05:30.078Z,19.40
2018-05-21T19:07:58.374Z,19.30
2018-05-21T19:10:26.712Z,19.10
2018-05-21T19:12:54.993Z,19.10
2018-05-21T19:15:23.274Z,19.00
2018-05-21T19:17:51.599Z,18.80
2018-05-21T19:20:19.646Z,18.60
2018-05-21T19:22:48.696Z,18.50
2018-05-21T19:25:17.027Z,18.40
2018-05-21T19:27:45.348Z,18.40
2018-05-21T19:30:13.647Z,18.30
2018-05-21T19:32:41.978Z,18.20
2018-05-21T19:35:10.263Z,18.00
2018-05-21T19:37:38.543Z,17.90
2018-05-21T19:40:06.982Z,17.70
2018-05-21T19:42:35.502Z,17.60
2018-05-21T19:45:03.782Z,17.60
2018-05-21T19:47:32.090Z,17.60
2018-05-21T19:50:00.375Z,17.30
2018-05-21T19:52:28.646Z,17.00
2018-05-21T19:54:56.958Z,16.80
2018-05-21T19:57:25.240Z,16.40
2018-05-21T19:59:53.515Z,16.10
2018-05-21T20:02:21.828Z,16.00
2018-05-21T20:04:50.115Z,15.90
2018-05-21T20:07:18.497Z,15.80
2018-05-21T20:09:46.739Z,15.70
2018-05-21T20:12:15.023Z,15.80
2018-05-21T20:14:43.302Z,15.80
2018-05-21T20:17:11.619Z,15.70
2018-05-21T20:19:39.914Z,15.90
2018-05-21T20:22:08.960Z,15.90
2018-05-21T20:24:37.263Z,15.90
2018-05-21T20:27:05.547Z,15.80
2018-05-21T20:29:33.877Z,15.70
2018-05-21T20:32:02.159Z,15.60
2018-05-21T20:34:30.442Z,15.60
2018-05-21T20:36:58.781Z,15.40
2018-05-21T20:39:27.071Z,15.40
2018-05-21T20:41:55.356Z,15.30
2018-05-21T20:44:23.665Z,15.20
2018-05-21T20:46:51.954Z,15.40
2018-05-21T20:49:20.242Z,15.30
2018-05-21T20:51:48.571Z,15.20
2018-05-21T20:54:16.854Z,15.30
2018-05-21T20:56:45.144Z,15.10
2018-05-21T20:59:13.455Z,15.00
2018-05-21T21:01:41.737Z,14.80
2018-05-21T21:04:10.018Z,14.80
2018-05-21T21:06:38.499Z,14.70
2018-05-21T21:09:06.782Z,14.80
2018-05-21T21:11:35.109Z,14.90
2018-05-21T21:14:03.451Z,14.60
2018-05-21T21:16:31.733Z,14.50
2018-05-21T21:19:00.040Z,14.70
2018-05-21T21:21:28.339Z,14.80
2018-05-21T21:23:56.676Z,14.80
2018-05-21T21:26:24.952Z,14.80
2018-05-21T21:28:53.238Z,14.60
2018-05-21T21:31:21.571Z,14.60
2018-05-21T21:33:50.628Z,14.90
2018-05-21T21:36:18.912Z,14.80
2018-05-21T21:38:47.294Z,14.80
2018-05-21T21:41:15.582Z,14.70
2018-05-21T21:43:43.863Z,14.60
2018-05-21T21:46:12.167Z,14.70
2018-05-21T21:48:40.455Z,14.50
2018-05-21T21:51:08.782Z,14.40
2018-05-21T21:53:37.063Z,14.50
2018-05-21T21:56:05.347Z,14.60
2018-05-21T21:58:33.690Z,14.60
2018-05-21T22:01:01.974Z,14.50
2018-05-21T22:03:30.258Z,14.50
2018-05-21T22:05:58.575Z,14.50
2018-05-21T22:08:26.858Z,14.30
2018-05-21T22:10:55.134Z,14.20
2018-05-21T22:13:23.444Z,14.20
2018-05-21T22:15:51.735Z,14.10
2018-05-21T22:18:20.050Z,14.20
2018-05-21T22:20:48.322Z,14.20
2018-05-21T22:23:16.598Z,14.30
2018-05-21T22:25:44.921Z,14.30
2018-05-21T22:28:13.301Z,14.30
2018-05-21T22:30:41.498Z,14.10
2018-05-21T22:33:09.831Z,14.10
2018-05-21T22:35:38.110Z,14.00
2018-05-21T22:38:06.413Z,14.10
2018-05-21T22:40:34.718Z,14.00
2018-05-21T22:43:03.007Z,13.90
2018-05-21T22:45:31.294Z,13.80
2018-05-21T22:47:59.609Z,13.70
2018-05-21T22:50:27.885Z,13.80
2018-05-21T22:52:56.187Z,13.80
2018-05-21T22:55:24.494Z,13.80
2018-05-21T22:57:52.773Z,13.70
2018-05-21T23:00:21.054Z,13.50
2018-05-21T23:02:49.367Z,13.40
2018-05-21T23:05:17.650Z,13.40
2018-05-21T23:07:45.939Z,13.20
2018-05-21T23:10:14.282Z,13.10
2018-05-21T23:12:43.344Z,12.80
2018-05-21T23:15:11.634Z,12.80
2018-05-21T23:17:39.951Z,13.10
2018-05-21T23:20:08.246Z,13.10
2018-05-21T23:22:51.424Z,13.20
2018-05-21T23:25:19.715Z,13.20
2018-05-21T23:27:48.533Z,13.30
2018-05-21T23:30:16.858Z,13.30
2018-05-21T23:32:45.138Z,13.20
2018-05-21T23:35:13.423Z,13.20
2018-05-21T23:37:41.738Z,13.40
2018-05-21T23:40:10.029Z,13.30
2018-05-21T23:42:38.332Z,13.20
2018-05-21T23:45:06.682Z,13.10
2018-05-21T23:47:34.980Z,12.80
2018-05-21T23:50:03.265Z,12.70
2018-05-21T23:52:31.590Z,12.60
2018-05-21T23:55:00.642Z,12.60
2018-05-21T23:57:28.931Z,12.60
2018-05-21T23:59:57.254Z,12.60
